Time;durP1;ratioP1;P1;durP2;ratioP2;P2;SDS_P1;SDS_P2;PMS_P1;PMS_P2;Temp;Humidity;BMP_temperature;BMP_pressure;BME280_temperature;BME280_humidity;BME280_pressure;Samples;Min_cycle;Max_cycle;Signal;HPM_P1;HPM_P2
2022/07/27 00:00:39;;;;;;;5.93;5.18;;;23.40;93.80;;;;;;4128713;28;20050;-61
2022/07/27 00:02:40;;;;;;;8.18;4.75;;;23.40;93.80;;;;;;4129818;28;20034;-61
2022/07/27 00:04:41;;;;;;;6.68;4.80;;;23.40;93.90;;;;;;4129189;28;20030;-61
2022/07/27 00:06:43;;;;;;;7.63;4.60;;;23.40;94.10;;;;;;4129209;28;20046;-62
2022/07/27 00:08:44;;;;;;;6.57;4.78;;;23.40;94.20;;;;;;4128506;28;20030;-63
2022/07/27 00:10:45;;;;;;;6.82;4.82;;;23.40;94.30;;;;;;4128904;28;20486;-63
2022/07/27 00:12:46;;;;;;;7.85;5.00;;;23.40;94.60;;;;;;4128960;28;20046;-62
2022/07/27 00:14:48;;;;;;;11.98;6.03;;;23.40;94.40;;;;;;4134046;28;20100;-62
2022/07/27 00:16:49;;;;;;;4.90;4.50;;;23.40;94.40;;;;;;4145481;28;20441;-62
2022/07/27 00:18:50;;;;;;;6.38;4.70;;;23.40;94.60;;;;;;4144195;28;20100;-62
2022/07/27 00:20:51;;;;;;;5.78;4.72;;;23.40;94.60;;;;;;4145051;28;20057;-63
2022/07/27 00:22:53;;;;;;;5.50;4.88;;;23.50;94.70;;;;;;4144507;28;20042;-63
2022/07/27 00:24:54;;;;;;;8.00;4.30;;;23.50;94.60;;;;;;4145279;28;20046;-63
2022/07/27 00:26:56;;;;;;;4.95;4.45;;;23.60;94.60;;;;;;4144084;28;20029;-64
2022/07/27 00:28:57;;;;;;;5.38;4.78;;;23.60;94.80;;;;;;4144314;28;20544;-62
2022/07/27 00:30:58;;;;;;;9.98;4.95;;;23.50;94.90;;;;;;4128347;28;20074;-62
2022/07/27 00:32:59;;;;;;;8.23;5.38;;;23.60;95.10;;;;;;4129199;28;20039;-62
2022/07/27 00:35:00;;;;;;;5.43;4.93;;;23.50;95.30;;;;;;4127947;28;20046;-62
2022/07/27 00:37:02;;;;;;;8.07;5.18;;;23.50;95.40;;;;;;4128840;28;20035;-63
2022/07/27 00:39:03;;;;;;;6.32;5.05;;;23.50;95.70;;;;;;4128217;28;20494;-62
2022/07/27 00:41:05;;;;;;;6.10;5.57;;;23.50;95.70;;;;;;4128601;28;20034;-63
2022/07/27 00:43:06;;;;;;;7.40;4.35;;;23.50;95.80;;;;;;4129104;28;20034;-64
2022/07/27 00:45:08;;;;;;;4.95;4.55;;;23.50;95.90;;;;;;4144662;28;20077;-63
2022/07/27 00:47:09;;;;;;;7.43;4.75;;;23.50;95.90;;;;;;4145276;28;20097;-63
2022/07/27 00:49:10;;;;;;;5.60;4.93;;;23.50;96.00;;;;;;4144120;28;20122;-64
2022/07/27 00:51:12;;;;;;;7.60;4.95;;;23.50;96.10;;;;;;4145014;28;20034;-64
2022/07/27 00:53:13;;;;;;;7.80;5.20;;;23.50;96.20;;;;;;4143963;28;20022;-62
2022/07/27 00:55:14;;;;;;;15.93;5.15;;;23.60;96.50;;;;;;4145118;28;20045;-64
2022/07/27 00:57:16;;;;;;;6.28;4.55;;;23.60;96.70;;;;;;4143985;28;20034;-63
2022/07/27 00:59:18;;;;;;;8.70;5.28;;;23.50;97.20;;;;;;4141793;28;20030;-62
2022/07/27 01:01:19;;;;;;;7.88;5.80;;;23.50;97.90;;;;;;4144038;28;20029;-63
2022/07/27 01:03:21;;;;;;;9.27;5.57;;;23.40;98.60;;;;;;4146578;28;20092;-62
2022/07/27 01:05:22;;;;;;;11.63;6.00;;;23.30;98.80;;;;;;4145093;28;20095;-63
2022/07/27 01:07:24;;;;;;;24.30;6.80;;;23.30;99.20;;;;;;4147960;28;20100;-62
2022/07/27 01:11:47;;;;;;;10.30;6.93;;;23.10;99.90;;;;;;4148040;28;20072;-63
2022/07/27 01:13:48;;;;;;;10.02;6.35;;;22.90;99.90;;;;;;4146954;28;20259;-62
2022/07/27 01:15:50;;;;;;;10.55;6.10;;;23.00;99.90;;;;;;4148310;28;20477;-62
2022/07/27 01:17:51;;;;;;;7.95;6.03;;;22.90;99.90;;;;;;4147327;28;20037;-62
2022/07/27 01:19:52;;;;;;;7.80;5.90;;;22.90;99.90;;;;;;4147461;28;20070;-62
2022/07/27 01:21:53;;;;;;;8.25;5.38;;;22.90;99.90;;;;;;4147789;28;20053;-61
2022/07/27 01:23:55;;;;;;;7.03;5.60;;;22.90;99.90;;;;;;4133055;28;20042;-62
2022/07/27 01:25:56;;;;;;;6.32;5.38;;;22.90;99.90;;;;;;4130455;28;20034;-63
2022/07/27 01:27:57;;;;;;;10.07;5.85;;;22.90;99.90;;;;;;4130461;28;20019;-62
2022/07/27 01:29:58;;;;;;;8.38;5.68;;;22.90;99.90;;;;;;4131485;28;20026;-62
2022/07/27 01:31:59;;;;;;;9.57;5.35;;;22.80;99.90;;;;;;4129898;28;20045;-62
2022/07/27 01:34:02;;;;;;;9.07;6.05;;;22.80;99.90;;;;;;4131363;28;20047;-63
2022/07/27 01:36:04;;;;;;;9.23;6.05;;;22.70;99.90;;;;;;4130261;28;20042;-63
2022/07/27 01:38:10;;;;;;;7.63;5.43;;;22.80;99.90;;;;;;4136679;28;20417;-63
2022/07/27 01:40:12;;;;;;;6.18;5.57;;;22.90;99.90;;;;;;4146301;28;20396;-63
2022/07/27 01:42:15;;;;;;;12.13;5.43;;;22.90;99.90;;;;;;4147527;28;20033;-63
2022/07/27 01:44:16;;;;;;;8.57;5.50;;;23.00;99.90;;;;;;4146255;28;20461;-63
2022/07/27 01:46:17;;;;;;;7.35;5.93;;;23.10;99.90;;;;;;4147819;28;20034;-63
2022/07/27 01:48:18;;;;;;;6.35;5.53;;;23.10;99.90;;;;;;4146438;28;20034;-63
2022/07/27 01:50:20;;;;;;;6.88;5.60;;;23.00;99.90;;;;;;4147360;28;20115;-64
2022/07/27 01:52:21;;;;;;;9.60;5.72;;;23.00;99.90;;;;;;4144305;28;20054;-63
2022/07/27 01:54:22;;;;;;;7.13;5.40;;;23.00;99.90;;;;;;4145939;28;20080;-63
2022/07/27 01:56:23;;;;;;;9.98;5.88;;;23.00;99.90;;;;;;4146921;28;20481;-63
2022/07/27 01:58:24;;;;;;;8.50;5.90;;;22.90;99.90;;;;;;4146208;28;20445;-65
2022/07/27 02:00:25;;;;;;;10.63;5.38;;;22.90;99.90;;;;;;4146923;28;20478;-63
2022/07/27 02:02:27;;;;;;;5.85;5.25;;;22.90;99.90;;;;;;4145743;28;20034;-63
2022/07/27 02:04:28;;;;;;;5.47;4.97;;;22.80;99.90;;;;;;4147080;28;20084;-63
2022/07/27 02:06:29;;;;;;;5.53;4.80;;;22.90;99.90;;;;;;4146146;28;20038;-63
2022/07/27 02:08:31;;;;;;;7.28;4.97;;;22.80;99.90;;;;;;4147158;28;20489;-63
2022/07/27 02:10:33;;;;;;;12.13;5.07;;;22.90;99.90;;;;;;4144122;28;20026;-63
2022/07/27 02:12:34;;;;;;;7.28;5.15;;;22.80;99.90;;;;;;4146996;28;20029;-63
2022/07/27 02:14:35;;;;;;;5.78;5.18;;;22.90;99.90;;;;;;4145817;28;20054;-63
2022/07/27 02:16:36;;;;;;;9.10;5.32;;;22.90;99.90;;;;;;4147649;28;20038;-63
2022/07/27 02:18:37;;;;;;;6.32;4.95;;;22.90;99.90;;;;;;4145883;28;20034;-63
2022/07/27 02:20:41;;;;;;;6.55;4.88;;;22.80;99.90;;;;;;4146620;28;20029;-63
2022/07/27 02:22:43;;;;;;;7.13;4.65;;;22.80;99.90;;;;;;4145925;28;20446;-63
2022/07/27 02:24:46;;;;;;;5.05;4.55;;;22.80;99.90;;;;;;4146472;28;20018;-64
2022/07/27 02:26:47;;;;;;;5.85;4.68;;;22.90;99.90;;;;;;4145742;28;20092;-63
2022/07/27 02:28:48;;;;;;;7.13;5.88;;;22.80;99.90;;;;;;4146138;28;20018;-63
2022/07/27 02:30:49;;;;;;;6.40;5.07;;;22.80;99.90;;;;;;4146670;28;20038;-63
2022/07/27 02:32:50;;;;;;;6.90;5.10;;;22.80;99.90;;;;;;4145519;28;20432;-63
2022/07/27 02:34:51;;;;;;;8.77;5.15;;;22.80;99.90;;;;;;4141921;28;20077;-62
2022/07/27 02:36:52;;;;;;;6.47;5.47;;;22.70;99.90;;;;;;4129208;28;20104;-63
2022/07/27 02:38:54;;;;;;;6.68;4.93;;;22.70;99.90;;;;;;4130466;28;20034;-62
2022/07/27 02:40:55;;;;;;;5.90;4.97;;;22.60;99.90;;;;;;4129458;28;20046;-62
2022/07/27 02:42:56;;;;;;;8.88;4.75;;;22.60;99.90;;;;;;4130560;28;20142;-62
2022/07/27 02:44:58;;;;;;;6.22;5.13;;;22.50;99.90;;;;;;4129149;28;20030;-62
2022/07/27 02:46:59;;;;;;;5.40;4.75;;;22.50;99.90;;;;;;4131106;28;20093;-62
2022/07/27 02:49:00;;;;;;;7.88;5.32;;;22.40;99.90;;;;;;4132309;28;20045;-62
2022/07/27 02:51:01;;;;;;;5.57;5.03;;;22.40;99.90;;;;;;4146184;28;20095;-62
2022/07/27 02:53:02;;;;;;;7.22;5.47;;;22.30;99.90;;;;;;4145638;28;20069;-62
2022/07/27 02:55:04;;;;;;;7.35;4.97;;;22.30;99.90;;;;;;4145689;28;20112;-63
2022/07/27 02:57:06;;;;;;;6.15;5.38;;;22.20;99.90;;;;;;4145508;28;20083;-64
2022/07/27 02:59:07;;;;;;;7.35;5.38;;;22.20;99.90;;;;;;4145772;28;20478;-66
2022/07/27 03:01:08;;;;;;;6.85;5.10;;;22.20;99.90;;;;;;4145467;28;20038;-63
2022/07/27 03:03:09;;;;;;;8.85;5.80;;;22.20;99.90;;;;;;4145021;28;20038;-62
2022/07/27 03:05:10;;;;;;;5.30;4.80;;;22.20;99.90;;;;;;4144317;28;20045;-62
2022/07/27 03:07:11;;;;;;;8.55;5.60;;;22.20;99.90;;;;;;4144968;28;20038;-62
2022/07/27 03:09:12;;;;;;;7.40;4.72;;;22.10;99.90;;;;;;4145999;28;20077;-63
2022/07/27 03:11:15;;;;;;;8.45;6.05;;;22.00;99.90;;;;;;4145173;28;20085;-63
2022/07/27 03:13:16;;;;;;;7.70;5.15;;;22.00;99.90;;;;;;4146063;28;20025;-63
2022/07/27 03:15:17;;;;;;;6.57;5.90;;;21.90;99.90;;;;;;4144729;28;20037;-62
2022/07/27 03:17:18;;;;;;;6.90;5.72;;;21.90;99.90;;;;;;4146451;28;20042;-62
2022/07/27 03:19:19;;;;;;;7.32;5.72;;;21.90;99.90;;;;;;4143086;28;20462;-63
2022/07/27 03:21:20;;;;;;;10.93;5.90;;;21.80;99.90;;;;;;4145419;28;20715;-62
2022/07/27 03:23:22;;;;;;;7.57;6.43;;;21.80;99.90;;;;;;4144922;28;20042;-62
2022/07/27 03:25:23;;;;;;;6.85;6.15;;;21.80;99.90;;;;;;4144753;28;20097;-63
2022/07/27 03:27:24;;;;;;;15.23;6.38;;;21.80;99.90;;;;;;4145247;28;20017;-63
2022/07/27 03:29:25;;;;;;;10.02;6.18;;;21.80;99.90;;;;;;4145034;28;20865;-63
2022/07/27 03:31:27;;;;;;;7.13;5.65;;;21.90;99.90;;;;;;4132722;28;20030;-62
2022/07/27 03:33:28;;;;;;;9.05;6.65;;;22.00;99.90;;;;;;4127345;28;20523;-63
2022/07/27 03:35:29;;;;;;;8.75;6.20;;;22.30;99.90;;;;;;4134368;28;20479;-62
2022/07/27 03:37:30;;;;;;;9.30;6.10;;;22.50;99.90;;;;;;4128234;28;20046;-62
2022/07/27 03:39:32;;;;;;;8.02;6.45;;;22.70;99.90;;;;;;4128969;28;20446;-62
2022/07/27 03:41:33;;;;;;;10.70;7.53;;;22.90;99.90;;;;;;4128381;28;20061;-63
2022/07/27 03:43:34;;;;;;;9.68;6.47;;;23.10;99.90;;;;;;4129276;28;20498;-62
2022/07/27 03:45:36;;;;;;;8.52;5.97;;;23.30;99.90;;;;;;4126913;28;20038;-62
2022/07/27 03:47:37;;;;;;;9.15;5.97;;;23.50;99.90;;;;;;4129987;28;20070;-63
2022/07/27 03:49:38;;;;;;;7.72;6.20;;;23.80;99.90;;;;;;4128155;28;20034;-62
2022/07/27 03:51:39;;;;;;;8.88;6.30;;;23.90;99.90;;;;;;4143695;28;20045;-62
2022/07/27 03:53:40;;;;;;;8.77;6.45;;;24.00;99.90;;;;;;4144551;28;20449;-62
2022/07/27 03:55:42;;;;;;;8.52;6.00;;;24.20;99.90;;;;;;4144959;28;20116;-62
2022/07/27 03:57:43;;;;;;;9.02;6.30;;;24.50;99.90;;;;;;4144647;28;20042;-62
2022/07/27 03:59:44;;;;;;;10.70;6.03;;;24.60;99.90;;;;;;4144500;28;20122;-63
2022/07/27 04:01:46;;;;;;;14.25;6.70;;;25.00;99.90;;;;;;4144534;28;20104;-63
2022/07/27 04:03:47;;;;;;;8.23;5.80;;;25.30;99.90;;;;;;4144312;28;20084;-63
2022/07/27 04:05:48;;;;;;;7.95;5.78;;;25.70;99.90;;;;;;4145231;28;20072;-61
2022/07/27 04:07:49;;;;;;;13.02;6.05;;;26.10;99.90;;;;;;4144223;28;20378;-63
2022/07/27 04:09:50;;;;;;;8.30;6.45;;;26.30;99.90;;;;;;4145225;28;20029;-63
2022/07/27 04:11:52;;;;;;;10.63;6.50;;;26.50;99.90;;;;;;4143490;28;20042;-63
2022/07/27 04:13:53;;;;;;;9.10;6.00;;;26.50;99.90;;;;;;4145221;28;20069;-63
2022/07/27 04:15:56;;;;;;;9.15;6.30;;;26.40;99.80;;;;;;4144291;28;20071;-62
2022/07/27 04:17:57;;;;;;;8.95;5.70;;;26.30;99.90;;;;;;4145166;28;20022;-66
2022/07/27 04:19:58;;;;;;;7.10;5.90;;;26.50;99.80;;;;;;4144090;28;20084;-64
2022/07/27 04:22:00;;;;;;;7.30;6.38;;;26.30;99.90;;;;;;4137154;28;20058;-63
2022/07/27 04:24:01;;;;;;;8.80;6.50;;;26.30;99.90;;;;;;4127689;28;20102;-61
2022/07/27 04:26:02;;;;;;;12.25;7.38;;;26.50;99.80;;;;;;4128943;28;20042;-64
2022/07/27 04:28:04;;;;;;;10.77;7.45;;;26.80;99.70;;;;;;4128257;28;20046;-62
2022/07/27 04:30:06;;;;;;;15.30;8.48;;;27.30;99.10;;;;;;4128245;28;20406;-62
2022/07/27 04:32:07;;;;;;;22.50;9.55;;;27.50;98.60;;;;;;4129296;28;20073;-63
2022/07/27 04:34:08;;;;;;;13.18;7.78;;;27.50;98.50;;;;;;4128177;28;20545;-63
2022/07/27 04:36:09;;;;;;;21.05;11.05;;;26.90;99.20;;;;;;4120476;28;20400;-63
2022/07/27 04:38:11;;;;;;;13.55;9.48;;;26.90;99.60;;;;;;4129103;28;20533;-63
2022/07/27 04:40:12;;;;;;;14.35;8.00;;;27.00;99.60;;;;;;4131962;28;20058;-63
2022/07/27 04:42:13;;;;;;;13.75;10.07;;;26.80;99.70;;;;;;4121443;28;20483;-63
2022/07/27 04:44:14;;;;;;;11.70;10.50;;;26.80;99.70;;;;;;4139397;28;20084;-63
2022/07/27 04:46:15;;;;;;;14.70;10.40;;;26.50;99.90;;;;;;4131004;28;20038;-63
2022/07/27 04:48:17;;;;;;;14.77;10.82;;;26.60;99.90;;;;;;4122691;28;20082;-64
2022/07/27 04:50:18;;;;;;;11.13;9.80;;;26.40;99.90;;;;;;4126038;28;20100;-63
2022/07/27 04:52:19;;;;;;;17.05;10.05;;;26.30;99.90;;;;;;4125410;28;20050;-64
2022/07/27 04:54:20;;;;;;;11.73;9.88;;;26.20;99.90;;;;;;4131251;28;20050;-61
2022/07/27 04:56:21;;;;;;;17.25;10.95;;;26.20;99.90;;;;;;4131643;28;20050;-63
2022/07/27 04:58:23;;;;;;;14.38;11.68;;;26.10;99.90;;;;;;4131236;28;20458;-64
2022/07/27 05:00:24;;;;;;;13.82;10.10;;;26.50;99.90;;;;;;4131354;28;20073;-64
2022/07/27 05:02:27;;;;;;;18.02;9.43;;;26.70;99.90;;;;;;4131190;28;20038;-62
2022/07/27 05:04:28;;;;;;;17.52;10.63;;;27.30;99.60;;;;;;4130008;28;20034;-64
2022/07/27 05:06:31;;;;;;;17.08;10.40;;;27.90;98.70;;;;;;4134506;28;20480;-63
2022/07/27 05:08:32;;;;;;;33.85;10.80;;;28.40;97.70;;;;;;4141736;28;20096;-63
2022/07/27 05:10:34;;;;;;;19.63;9.48;;;28.50;97.00;;;;;;4146989;28;20038;-62
2022/07/27 05:12:35;;;;;;;17.55;8.57;;;27.80;97.30;;;;;;4143030;28;20034;-61
2022/07/27 05:14:36;;;;;;;24.15;9.30;;;27.20;98.30;;;;;;4131062;28;20055;-65
2022/07/27 05:16:39;;;;;;;13.20;7.97;;;26.70;98.90;;;;;;4130609;28;20054;-64
2022/07/27 05:18:40;;;;;;;88.43;17.20;;;26.50;99.40;;;;;;4131468;28;20081;-64
2022/07/27 05:20:42;;;;;;;87.53;15.25;;;26.30;99.90;;;;;;4130071;28;20080;-64
2022/07/27 05:22:43;;;;;;;17.48;9.10;;;26.10;99.90;;;;;;4131339;28;20092;-63
2022/07/27 05:24:44;;;;;;;30.17;10.73;;;26.60;99.90;;;;;;4130283;28;20112;-67
2022/07/27 05:26:45;;;;;;;15.55;9.65;;;26.80;99.60;;;;;;4131298;28;20026;-65
2022/07/27 05:28:46;;;;;;;13.18;9.30;;;27.30;99.00;;;;;;4130469;28;20038;-64
2022/07/27 05:30:48;;;;;;;14.15;8.23;;;27.40;98.60;;;;;;4130841;28;20034;-65
2022/07/27 05:32:49;;;;;;;9.65;7.40;;;28.10;97.90;;;;;;4130466;28;20062;-64
2022/07/27 05:34:50;;;;;;;13.30;8.63;;;28.40;96.90;;;;;;4130437;28;20438;-63
2022/07/27 05:36:51;;;;;;;10.68;7.72;;;28.50;96.40;;;;;;4130768;28;20108;-63
2022/07/27 05:38:52;;;;;;;12.55;8.05;;;28.30;96.20;;;;;;4129960;28;20372;-63
2022/07/27 05:40:53;;;;;;;12.60;7.65;;;28.40;96.10;;;;;;4130937;28;20101;-62
2022/07/27 05:42:55;;;;;;;13.95;7.57;;;28.40;96.10;;;;;;4129999;28;20022;-64
2022/07/27 05:44:56;;;;;;;12.10;9.10;;;28.60;95.80;;;;;;4130952;28;20062;-63
2022/07/27 05:46:57;;;;;;;11.00;7.72;;;28.80;95.40;;;;;;4130337;28;20061;-62
2022/07/27 05:48:59;;;;;;;10.13;8.32;;;28.80;95.10;;;;;;4130764;28;20089;-63
2022/07/27 05:51:00;;;;;;;13.07;8.35;;;28.50;95.30;;;;;;4129927;28;20034;-64
2022/07/27 05:53:01;;;;;;;13.52;7.78;;;28.60;95.40;;;;;;4131150;28;20042;-63
2022/07/27 05:55:03;;;;;;;9.18;8.27;;;28.90;95.10;;;;;;4129679;28;20023;-64
2022/07/27 05:57:04;;;;;;;10.60;7.50;;;28.20;95.30;;;;;;4130945;28;20046;-64
2022/07/27 05:59:05;;;;;;;10.05;7.10;;;28.40;95.50;;;;;;4129646;28;20081;-63
2022/07/27 06:01:06;;;;;;;58.90;14.30;;;28.70;95.00;;;;;;4130401;28;20097;-64
2022/07/27 06:03:07;;;;;;;23.85;10.68;;;27.60;95.80;;;;;;4130080;28;20035;-64
2022/07/27 06:05:09;;;;;;;55.67;12.18;;;27.30;96.70;;;;;;4130011;28;20092;-63
2022/07/27 06:09:30;;;;;;;13.20;8.73;;;27.40;97.00;;;;;;4130212;28;20116;-63
2022/07/27 06:11:31;;;;;;;9.68;6.93;;;27.90;96.30;;;;;;4130341;28;20097;-63
2022/07/27 06:13:35;;;;;;;13.38;7.57;;;28.40;95.80;;;;;;4129468;28;20076;-65
2022/07/27 06:15:37;;;;;;;37.45;9.57;;;29.00;95.00;;;;;;4130127;28;20104;-61
2022/07/27 06:17:38;;;;;;;21.30;9.10;;;28.70;94.80;;;;;;4129802;28;20022;-63
2022/07/27 06:19:39;;;;;;;15.10;7.72;;;28.10;95.50;;;;;;4130589;28;20046;-62
2022/07/27 06:21:41;;;;;;;15.25;8.70;;;28.20;95.60;;;;;;4129340;28;20100;-63
2022/07/27 06:23:42;;;;;;;8.63;6.38;;;29.00;95.10;;;;;;4130570;28;20031;-65
2022/07/27 06:25:43;;;;;;;11.73;7.45;;;29.50;94.00;;;;;;4129248;28;20027;-62
2022/07/27 06:27:44;;;;;;;7.30;6.38;;;29.70;93.60;;;;;;4130283;28;20474;-64
2022/07/27 06:29:45;;;;;;;6.88;6.10;;;30.30;93.10;;;;;;4128989;28;20031;-63
2022/07/27 06:31:46;;;;;;;6.43;5.45;;;30.50;92.60;;;;;;4129909;28;20084;-63
2022/07/27 06:33:48;;;;;;;8.32;6.47;;;30.50;92.10;;;;;;4129107;28;20113;-63
2022/07/27 06:35:49;;;;;;;10.32;6.65;;;30.20;92.30;;;;;;4130000;28;20054;-64
2022/07/27 06:37:51;;;;;;;8.68;6.78;;;30.10;92.50;;;;;;4129433;28;20038;-62
2022/07/27 06:39:52;;;;;;;27.10;8.85;;;30.20;92.20;;;;;;4129814;28;20042;-63
2022/07/27 06:41:53;;;;;;;13.65;8.27;;;30.00;92.00;;;;;;4129906;28;20042;-63
2022/07/27 06:43:54;;;;;;;11.27;7.00;;;29.40;92.20;;;;;;4129519;28;20093;-64
2022/07/27 06:45:59;;;;;;;18.35;7.63;;;28.60;93.30;;;;;;4129809;28;20038;-63
2022/07/27 06:48:00;;;;;;;57.53;12.45;;;28.50;93.70;;;;;;4129089;28;20031;-63
2022/07/27 06:50:02;;;;;;;14.77;7.72;;;28.30;94.00;;;;;;4130229;28;20038;-64
2022/07/27 06:52:03;;;;;;;17.05;6.50;;;28.20;94.10;;;;;;4128697;28;20050;-63
2022/07/27 06:54:05;;;;;;;9.88;6.50;;;28.40;93.90;;;;;;4130182;28;20054;-65
2022/07/27 06:56:07;;;;;;;6.88;6.05;;;28.10;94.20;;;;;;4128591;28;20131;-62
2022/07/27 06:58:08;;;;;;;13.23;7.40;;;28.20;94.10;;;;;;4129978;28;20042;-62
2022/07/27 07:00:10;;;;;;;7.57;6.88;;;28.70;93.70;;;;;;4128036;28;20030;-63
2022/07/27 07:02:11;;;;;;;9.18;6.32;;;28.50;93.60;;;;;;4129875;28;20111;-63
2022/07/27 07:04:12;;;;;;;11.07;5.88;;;28.30;93.70;;;;;;4128628;28;20113;-63
2022/07/27 07:06:14;;;;;;;15.18;7.03;;;28.20;93.80;;;;;;4129661;28;20088;-62
2022/07/27 07:08:15;;;;;;;7.40;6.63;;;28.10;94.10;;;;;;4128792;28;20030;-64
2022/07/27 07:10:17;;;;;;;10.90;7.32;;;28.10;94.00;;;;;;4129330;28;20478;-62
2022/07/27 07:12:18;;;;;;;10.60;7.00;;;28.20;94.20;;;;;;4128954;28;20022;-63
2022/07/27 07:14:19;;;;;;;9.70;6.30;;;28.30;93.80;;;;;;4129047;28;20046;-63
2022/07/27 07:16:20;;;;;;;10.15;6.47;;;28.60;93.50;;;;;;4128925;28;20462;-64
2022/07/27 07:18:22;;;;;;;101.88;19.52;;;28.60;93.30;;;;;;4128831;28;20088;-63
2022/07/27 07:20:23;;;;;;;25.38;7.63;;;28.30;93.30;;;;;;4129162;28;20436;-62
2022/07/27 07:22:25;;;;;;;13.90;6.80;;;28.20;93.50;;;;;;4127852;28;20054;-63
2022/07/27 07:24:28;;;;;;;30.10;8.65;;;27.90;93.80;;;;;;4129535;28;20031;-64
2022/07/27 07:26:30;;;;;;;24.40;8.50;;;27.60;94.00;;;;;;4128535;28;20042;-62
2022/07/27 07:28:31;;;;;;;15.52;6.28;;;27.50;94.30;;;;;;4129295;28;20067;-62
2022/07/27 07:30:32;;;;;;;38.58;9.95;;;27.60;94.30;;;;;;4127938;28;20038;-62
2022/07/27 07:32:33;;;;;;;59.53;14.38;;;27.60;94.30;;;;;;4129897;28;20034;-63
2022/07/27 07:34:35;;;;;;;11.88;7.13;;;27.50;94.50;;;;;;4127848;28;20141;-62
2022/07/27 07:36:36;;;;;;;10.55;6.63;;;27.50;94.40;;;;;;4128984;28;20042;-63
2022/07/27 07:38:37;;;;;;;8.63;5.90;;;27.40;94.40;;;;;;4128143;28;20093;-64
2022/07/27 07:40:40;;;;;;;6.95;6.30;;;27.30;94.40;;;;;;4128919;28;20068;-62
2022/07/27 07:43:02;;;;;;;8.07;6.05;;;27.40;94.30;;;;;;4128476;28;20073;-62
2022/07/27 07:45:04;;;;;;;8.82;6.35;;;27.70;94.20;;;;;;4128918;28;20479;-63
2022/07/27 07:47:05;;;;;;;7.15;6.05;;;27.30;94.20;;;;;;4128422;28;20022;-63
2022/07/27 07:49:06;;;;;;;7.70;6.07;;;27.30;94.50;;;;;;4128817;28;20475;-63
2022/07/27 07:51:08;;;;;;;11.05;6.22;;;27.30;94.40;;;;;;4128225;28;20027;-63
2022/07/27 07:53:10;;;;;;;8.20;6.20;;;27.10;94.60;;;;;;4127030;28;20092;-64
2022/07/27 07:55:11;;;;;;;8.15;6.18;;;26.90;95.00;;;;;;4128608;28;20474;-64
2022/07/27 07:57:12;;;;;;;10.15;5.93;;;27.10;95.10;;;;;;4126422;28;20077;-64
2022/07/27 07:59:13;;;;;;;8.48;6.15;;;27.20;95.00;;;;;;4129099;28;20034;-63
2022/07/27 08:01:14;;;;;;;8.48;6.05;;;27.30;94.70;;;;;;4127568;28;20490;-63
2022/07/27 08:03:16;;;;;;;7.80;5.07;;;27.70;94.60;;;;;;4128888;28;20027;-63
2022/07/27 08:05:18;;;;;;;7.68;4.78;;;27.60;94.10;;;;;;4127716;28;20084;-63
2022/07/27 08:07:19;;;;;;;6.28;5.28;;;27.80;93.80;;;;;;4128616;28;20109;-62
2022/07/27 08:09:25;;;;;;;10.77;5.45;;;27.70;93.50;;;;;;4127850;28;20030;-64
2022/07/27 08:11:27;;;;;;;13.15;5.72;;;27.40;93.60;;;;;;4128597;28;20069;-63
2022/07/27 08:13:28;;;;;;;31.45;9.57;;;27.00;94.10;;;;;;4127741;28;20458;-63
2022/07/27 08:15:29;;;;;;;52.90;13.25;;;26.70;94.30;;;;;;4129060;28;20042;-63
2022/07/27 08:17:30;;;;;;;7.97;5.00;;;26.80;94.80;;;;;;4128305;28;20042;-63
2022/07/27 08:19:31;;;;;;;7.88;4.47;;;26.90;94.60;;;;;;4128783;28;20081;-64
2022/07/27 08:21:32;;;;;;;10.43;5.03;;;27.00;94.40;;;;;;4127819;28;20101;-63
2022/07/27 08:23:34;;;;;;;35.35;8.63;;;27.10;94.00;;;;;;4128422;28;20035;-64
2022/07/27 08:25:35;;;;;;;10.57;5.22;;;27.00;94.20;;;;;;4128340;28;20077;-64
2022/07/27 08:27:37;;;;;;;9.05;4.75;;;26.90;94.00;;;;;;4127492;28;20038;-67
2022/07/27 08:29:38;;;;;;;5.28;4.00;;;27.00;93.90;;;;;;4128766;28;20046;-64
2022/07/27 08:31:39;;;;;;;4.57;4.00;;;26.80;94.00;;;;;;4127564;28;20109;-64
2022/07/27 08:33:40;;;;;;;40.03;6.55;;;26.60;94.10;;;;;;4128557;28;20035;-65
2022/07/27 08:35:41;;;;;;;4.93;4.15;;;26.50;94.30;;;;;;4127672;28;20422;-65
2022/07/27 08:37:43;;;;;;;6.95;4.00;;;26.40;94.30;;;;;;4128259;28;20421;-63
2022/07/27 08:39:44;;;;;;;4.43;4.00;;;26.60;94.20;;;;;;4127381;28;20018;-66
2022/07/27 08:41:45;;;;;;;5.78;3.75;;;26.70;94.20;;;;;;4128570;28;20035;-64
2022/07/27 08:43:47;;;;;;;4.72;3.92;;;27.10;93.70;;;;;;4127544;28;20069;-63
2022/07/27 08:45:54;;;;;;;6.35;3.50;;;27.20;93.20;;;;;;4128752;28;20395;-63
2022/07/27 08:47:56;;;;;;;5.47;2.45;;;27.20;92.70;;;;;;4127877;28;20054;-64
2022/07/27 08:49:57;;;;;;;4.00;3.08;;;27.00;92.60;;;;;;4126992;28;20030;-63
2022/07/27 08:51:59;;;;;;;4.75;3.20;;;27.00;92.90;;;;;;4127807;28;20553;-64
2022/07/27 08:54:00;;;;;;;6.25;3.50;;;27.10;92.70;;;;;;4127995;28;20026;-62
2022/07/27 08:56:01;;;;;;;4.25;3.40;;;27.10;92.60;;;;;;4127740;28;20419;-63
2022/07/27 08:58:04;;;;;;;5.47;2.85;;;27.10;92.60;;;;;;4127616;28;20434;-63
2022/07/27 09:00:06;;;;;;;3.83;3.22;;;27.00;92.60;;;;;;4128353;28;20038;-66
2022/07/27 09:02:12;;;;;;;3.70;3.38;;;27.10;92.60;;;;;;4127521;28;20092;-64
2022/07/27 09:04:13;;;;;;;4.57;2.60;;;27.00;92.50;;;;;;4128096;28;20100;-63
2022/07/27 09:06:48;;;;;;;4.65;3.03;;;26.90;92.60;;;;;;4127239;28;20042;-64
2022/07/27 09:08:58;;;;;;;3.72;3.20;;;26.90;92.60;;;;;;4127769;28;20513;-63
2022/07/27 09:11:02;;;;;;;3.58;3.28;;;27.10;92.40;;;;;;4127446;28;20031;-63
2022/07/27 09:13:38;;;;;;;5.68;3.20;;;27.20;92.50;;;;;;4128112;28;20047;-64
2022/07/27 09:15:47;;;;;;;3.53;3.22;;;27.40;92.50;;;;;;4125260;28;20168;-63
2022/07/27 09:17:49;;;;;;;6.07;3.40;;;27.40;92.40;;;;;;4126199;28;20387;-63
2022/07/27 09:20:01;;;;;;;3.55;3.15;;;27.30;92.50;;;;;;4127930;28;20038;-63
2022/07/27 09:22:02;;;;;;;3.08;2.88;;;27.30;92.90;;;;;;4127447;28;20112;-63
2022/07/27 09:24:11;;;;;;;3.33;3.03;;;27.30;92.40;;;;;;4128595;28;20370;-63
2022/07/27 09:26:24;;;;;;;5.05;3.30;;;27.10;92.60;;;;;;4130849;28;20038;-63
2022/07/27 09:28:29;;;;;;;3.90;2.92;;;27.10;92.70;;;;;;4130533;28;20529;-64
2022/07/27 09:30:30;;;;;;;3.85;3.55;;;27.00;92.70;;;;;;4130401;28;20438;-65
2022/07/27 09:32:31;;;;;;;4.15;3.17;;;26.80;93.00;;;;;;4130146;28;20077;-62
2022/07/27 09:34:34;;;;;;;4.30;3.58;;;26.70;93.20;;;;;;4130643;28;20098;-63
2022/07/27 09:36:49;;;;;;;4.15;2.85;;;26.60;93.30;;;;;;4129754;28;20058;-62
2022/07/27 09:39:06;;;;;;;6.05;3.50;;;26.60;93.30;;;;;;4130446;28;20027;-63
2022/07/27 09:41:07;;;;;;;4.25;3.75;;;26.50;93.40;;;;;;4130224;28;20038;-64
2022/07/27 09:43:11;;;;;;;9.30;3.83;;;26.60;93.40;;;;;;4130604;28;20026;-63
2022/07/27 09:45:32;;;;;;;6.95;3.80;;;26.50;93.50;;;;;;4129791;28;20026;-63
2022/07/27 09:47:33;;;;;;;5.07;3.28;;;26.60;93.70;;;;;;4130785;28;20038;-62
2022/07/27 09:49:34;;;;;;;5.07;4.05;;;26.70;93.80;;;;;;4129900;28;20100;-63
2022/07/27 09:51:45;;;;;;;4.65;3.72;;;26.60;93.60;;;;;;4130643;28;20030;-63
2022/07/27 09:53:46;;;;;;;4.43;3.47;;;26.50;93.60;;;;;;4129589;28;20073;-64
2022/07/27 09:55:57;;;;;;;5.78;3.75;;;26.40;93.70;;;;;;4130420;28;20085;-63
2022/07/27 09:57:58;;;;;;;37.30;9.00;;;26.30;93.90;;;;;;4129854;28;20407;-63
2022/07/27 10:00:12;;;;;;;23.00;8.10;;;26.00;94.20;;;;;;4130796;28;20093;-62
2022/07/27 10:02:13;;;;;;;8.18;4.57;;;26.00;94.70;;;;;;4129493;28;20573;-63
2022/07/27 10:04:15;;;;;;;6.00;3.95;;;26.00;94.60;;;;;;4130542;28;20101;-62
2022/07/27 10:06:17;;;;;;;7.25;4.07;;;26.10;94.40;;;;;;4129411;28;20035;-63
2022/07/27 10:08:19;;;;;;;4.80;3.45;;;26.10;94.30;;;;;;4130445;28;20449;-63
2022/07/27 10:10:22;;;;;;;9.05;3.58;;;26.00;94.30;;;;;;4127943;28;20509;-63
2022/07/27 10:12:23;;;;;;;20.85;5.75;;;25.90;94.60;;;;;;4130559;28;20096;-63
2022/07/27 10:14:24;;;;;;;94.05;14.57;;;25.60;95.10;;;;;;4129330;28;20471;-63
2022/07/27 10:16:31;;;;;;;66.93;12.15;;;25.40;95.60;;;;;;4130387;28;20069;-64
2022/07/27 10:18:37;;;;;;;46.50;8.35;;;25.10;96.00;;;;;;4129696;28;20038;-64
2022/07/27 10:20:41;;;;;;;16.42;5.28;;;25.00;96.30;;;;;;4129801;28;20030;-63
2022/07/27 10:22:57;;;;;;;50.22;10.85;;;25.00;96.40;;;;;;4129097;28;20052;-63
2022/07/27 10:24:59;;;;;;;62.50;12.20;;;24.90;96.70;;;;;;4130304;28;20046;-63
2022/07/27 10:27:21;;;;;;;48.28;9.95;;;24.90;96.60;;;;;;4129540;28;20031;-63
2022/07/27 10:29:23;;;;;;;51.70;10.48;;;25.00;96.80;;;;;;4129852;28;20034;-62
2022/07/27 10:31:33;;;;;;;49.22;9.50;;;25.10;96.40;;;;;;4129366;28;20455;-62
2022/07/27 10:33:42;;;;;;;39.15;7.95;;;25.10;96.60;;;;;;4130024;28;20038;-64
2022/07/27 10:35:44;;;;;;;6.10;3.92;;;25.10;96.60;;;;;;4129001;28;20042;-63
2022/07/27 10:38:06;;;;;;;62.50;10.55;;;25.20;96.30;;;;;;4129414;28;20062;-63